Time;durP1;ratioP1;P1;durP2;ratioP2;P2;SDS_P1;SDS_P2;PMS_P1;PMS_P2;Temp;Humidity;BMP_temperature;BMP_pressure;BME280_temperature;BME280_humidity;BME280_pressure;Samples;Min_cycle;Max_cycle;Signal;HPM_P1;HPM_P2
2023/11/16 00:01:16;;;;;;;;;10.00;10.00;;;;;;;;5070169;28;10941;-80
2023/11/16 00:03:44;;;;;;;;;11.00;10.00;;;;;;;;5071065;28;10314;-80
2023/11/16 00:06:11;;;;;;;;;10.50;9.00;;;;;;;;5071393;28;10409;-80
2023/11/16 00:08:39;;;;;;;;;3.00;3.00;;;;;;;;5072657;28;10355;-83
2023/11/16 00:11:07;;;;;;;;;10.50;10.25;;;;;;;;5070765;28;10422;-82
2023/11/16 00:13:34;;;;;;;;;9.75;9.75;;;;;;;;5071128;28;10329;-81
2023/11/16 00:16:04;;;;;;;;;10.00;8.50;;;;;;;;5070861;28;10582;-82
2023/11/16 00:18:34;;;;;;;;;11.25;6.75;;;;;;;;5069950;28;10189;-82
2023/11/16 00:21:01;;;;;;;;;16.75;10.25;;;;;;;;5070296;28;10182;-82
2023/11/16 00:23:28;;;;;;;;;10.25;8.50;;;;;;;;5069964;28;10375;-82
2023/11/16 00:25:58;;;;;;;;;6.50;6.50;;;;;;;;5070585;28;10149;-83
2023/11/16 00:28:26;;;;;;;;;8.75;8.75;;;;;;;;5070182;28;10233;-83
2023/11/16 00:30:53;;;;;;;;;8.00;8.00;;;;;;;;5058784;28;10085;-80
2023/11/16 00:33:22;;;;;;;;;6.50;6.50;;;;;;;;5069783;28;10137;-80
2023/11/16 00:35:49;;;;;;;;;8.25;6.75;;;;;;;;5070248;28;10177;-81
2023/11/16 00:38:21;;;;;;;;;5.50;5.50;;;;;;;;5070346;28;11041;-80
2023/11/16 00:40:51;;;;;;;;;11.25;9.00;;;;;;;;5070441;28;10212;-80
2023/11/16 00:43:21;;;;;;;;;7.00;7.00;;;;;;;;5070238;28;10169;-81
2023/11/16 00:45:48;;;;;;;;;8.50;8.50;;;;;;;;5071210;28;9939;-81
2023/11/16 00:48:16;;;;;;;;;9.00;9.00;;;;;;;;5071124;28;10026;-82
2023/11/16 00:50:45;;;;;;;;;8.00;6.50;;;;;;;;5074043;28;10019;-81
2023/11/16 00:53:13;;;;;;;;;7.25;5.25;;;;;;;;5074024;28;10058;-81
2023/11/16 00:55:41;;;;;;;;;7.50;7.50;;;;;;;;5069146;28;10045;-81
2023/11/16 00:58:09;;;;;;;;;9.50;7.00;;;;;;;;5074167;28;9899;-80
2023/11/16 01:00:39;;;;;;;;;9.00;6.75;;;;;;;;5071683;28;9852;-80
2023/11/16 01:03:07;;;;;;;;;8.50;7.25;;;;;;;;5059790;28;9957;-82
2023/11/16 01:05:34;;;;;;;;;10.50;8.00;;;;;;;;5067271;28;9945;-81
2023/11/16 01:08:09;;;;;;;;;13.75;10.25;;;;;;;;5071050;28;9935;-81
2023/11/16 01:10:37;;;;;;;;;8.00;8.00;;;;;;;;5072951;28;10891;-82
2023/11/16 01:13:10;;;;;;;;;9.25;9.25;;;;;;;;5073772;28;9878;-83
2023/11/16 01:15:39;;;;;;;;;9.75;7.50;;;;;;;;5072224;28;9938;-78
2023/11/16 01:18:10;;;;;;;;;8.25;8.00;;;;;;;;5070246;28;9886;-81
2023/11/16 01:20:41;;;;;;;;;9.00;9.00;;;;;;;;5068567;28;10172;-80
2023/11/16 01:23:11;;;;;;;;;9.25;9.25;;;;;;;;5069114;28;10106;-81
2023/11/16 01:25:40;;;;;;;;;9.00;6.00;;;;;;;;5068585;28;10144;-82
2023/11/16 01:28:09;;;;;;;;;11.25;9.00;;;;;;;;5069353;28;10088;-79
2023/11/16 01:30:36;;;;;;;;;11.00;11.00;;;;;;;;5067725;28;9974;-80
2023/11/16 01:33:08;;;;;;;;;7.75;6.50;;;;;;;;5067743;28;10162;-82
2023/11/16 01:35:36;;;;;;;;;8.75;8.75;;;;;;;;5069141;28;10094;-82
2023/11/16 01:38:05;;;;;;;;;9.50;6.00;;;;;;;;5069027;28;9936;-81
2023/11/16 01:40:41;;;;;;;;;10.75;9.00;;;;;;;;5068841;28;10837;-81
2023/11/16 01:43:09;;;;;;;;;9.75;8.00;;;;;;;;5068796;28;10970;-81
2023/11/16 01:45:37;;;;;;;;;9.25;9.25;;;;;;;;5070802;28;10173;-80
2023/11/16 01:48:06;;;;;;;;;9.00;9.00;;;;;;;;5071870;28;10280;-78
2023/11/16 01:50:35;;;;;;;;;10.00;10.00;;;;;;;;5081169;28;10088;-78
2023/11/16 01:53:10;;;;;;;;;11.50;11.50;;;;;;;;5073130;28;10967;-82
2023/11/16 01:55:42;;;;;;;;;10.50;9.00;;;;;;;;5069656;28;10097;-80
2023/11/16 01:58:09;;;;;;;;;10.50;10.50;;;;;;;;5067440;28;10184;-80
2023/11/16 02:00:41;;;;;;;;;7.50;7.50;;;;;;;;5067786;28;10114;-80
2023/11/16 02:03:11;;;;;;;;;12.00;10.25;;;;;;;;5068325;28;10741;-79
2023/11/16 02:05:40;;;;;;;;;8.00;8.00;;;;;;;;5068260;28;10111;-79
2023/11/16 02:08:09;;;;;;;;;12.25;12.00;;;;;;;;5057934;28;10918;-82
2023/11/16 02:10:37;;;;;;;;;7.25;7.25;;;;;;;;5067649;28;10284;-82
2023/11/16 02:13:17;;;;;;;;;14.75;11.00;;;;;;;;5069265;28;10091;-82
2023/11/16 02:15:45;;;;;;;;;8.25;8.25;;;;;;;;5068341;28;10269;-81
2023/11/16 02:18:14;;;;;;;;;10.50;10.50;;;;;;;;5068831;28;10110;-81
2023/11/16 02:20:42;;;;;;;;;12.75;10.00;;;;;;;;5069453;28;10063;-82
2023/11/16 02:23:10;;;;;;;;;10.25;10.25;;;;;;;;5071123;28;10094;-78
2023/11/16 02:25:44;;;;;;;;;11.75;10.75;;;;;;;;5070086;28;10020;-81
2023/11/16 02:28:12;;;;;;;;;11.00;11.00;;;;;;;;5068618;28;10240;-81
2023/11/16 02:30:42;;;;;;;;;12.50;10.75;;;;;;;;5068208;28;10182;-79
2023/11/16 02:33:13;;;;;;;;;12.75;12.00;;;;;;;;5068448;28;11039;-79
2023/11/16 02:35:40;;;;;;;;;12.00;11.00;;;;;;;;5057554;28;10201;-81
2023/11/16 02:38:12;;;;;;;;;10.00;10.00;;;;;;;;5070780;28;10089;-80
2023/11/16 02:40:40;;;;;;;;;11.00;10.00;;;;;;;;5072435;28;10353;-79
2023/11/16 02:43:10;;;;;;;;;14.75;14.75;;;;;;;;5071976;28;10264;-81
2023/11/16 02:45:38;;;;;;;;;10.75;10.75;;;;;;;;5069051;28;10267;-79
2023/11/16 02:48:06;;;;;;;;;13.25;11.50;;;;;;;;5066951;28;10335;-80
2023/11/16 02:50:35;;;;;;;;;15.25;12.75;;;;;;;;5070203;28;10255;-81
2023/11/16 02:53:05;;;;;;;;;15.25;11.00;;;;;;;;5061414;28;10259;-83
2023/11/16 02:55:35;;;;;;;;;14.50;11.50;;;;;;;;5069969;28;10251;-82
2023/11/16 02:58:04;;;;;;;;;12.25;12.25;;;;;;;;5068244;28;10257;-80
2023/11/16 03:00:32;;;;;;;;;11.25;11.25;;;;;;;;5070210;28;10022;-81
2023/11/16 03:03:02;;;;;;;;;14.00;10.50;;;;;;;;5071400;28;10119;-82
2023/11/16 03:05:32;;;;;;;;;13.75;11.50;;;;;;;;5070278;28;10256;-81
2023/11/16 03:08:02;;;;;;;;;13.50;13.50;;;;;;;;5067795;28;10100;-81
2023/11/16 03:10:34;;;;;;;;;12.50;12.50;;;;;;;;5067172;28;10241;-83
2023/11/16 03:13:03;;;;;;;;;10.50;10.50;;;;;;;;5067586;28;10284;-82
2023/11/16 03:15:31;;;;;;;;;11.00;11.00;;;;;;;;5070819;28;10159;-83
2023/11/16 03:17:58;;;;;;;;;12.75;12.75;;;;;;;;5071700;28;10230;-82
2023/11/16 03:20:27;;;;;;;;;13.00;13.00;;;;;;;;5052449;28;10318;-81
2023/11/16 03:22:55;;;;;;;;;15.00;12.75;;;;;;;;5080101;28;10363;-84
2023/11/16 03:25:22;;;;;;;;;16.00;13.50;;;;;;;;5071963;28;10371;-81
2023/11/16 03:27:50;;;;;;;;;9.25;9.25;;;;;;;;5071295;28;10289;-81
2023/11/16 03:30:18;;;;;;;;;15.25;11.75;;;;;;;;5060691;28;10895;-81
2023/11/16 03:32:47;;;;;;;;;15.75;14.50;;;;;;;;5071437;28;10215;-79
2023/11/16 03:35:15;;;;;;;;;14.00;14.00;;;;;;;;5071201;28;10441;-82
2023/11/16 03:37:44;;;;;;;;;17.75;16.25;;;;;;;;5071386;28;10091;-81
2023/11/16 03:40:12;;;;;;;;;15.75;13.25;;;;;;;;5070798;28;10209;-80
2023/11/16 03:42:43;;;;;;;;;15.00;15.00;;;;;;;;5071660;28;10088;-80
2023/11/16 03:45:12;;;;;;;;;20.00;18.75;;;;;;;;5066317;28;10246;-81
2023/11/16 03:47:41;;;;;;;;;19.00;17.50;;;;;;;;5070097;28;10414;-81
2023/11/16 03:50:10;;;;;;;;;12.25;12.00;;;;;;;;5070791;28;11109;-80
2023/11/16 03:52:38;;;;;;;;;22.50;20.75;;;;;;;;5070810;28;10632;-82
2023/11/16 03:55:05;;;;;;;;;19.25;19.00;;;;;;;;5072524;28;10448;-80
2023/11/16 03:57:34;;;;;;;;;22.75;22.75;;;;;;;;5070624;28;10334;-80
2023/11/16 04:00:02;;;;;;;;;21.50;20.50;;;;;;;;5070768;28;11342;-80
2023/11/16 04:02:31;;;;;;;;;20.00;20.00;;;;;;;;5067838;28;10528;-80
2023/11/16 04:04:59;;;;;;;;;24.50;21.75;;;;;;;;5070622;28;10510;-82
2023/11/16 04:07:26;;;;;;;;;28.75;24.25;;;;;;;;5070015;28;10583;-80
2023/11/16 04:09:53;;;;;;;;;20.00;20.00;;;;;;;;5070784;28;10599;-81
2023/11/16 04:12:23;;;;;;;;;31.50;29.50;;;;;;;;5059406;28;10508;-81
2023/11/16 04:14:50;;;;;;;;;21.50;21.50;;;;;;;;5071147;28;10726;-83
2023/11/16 04:17:17;;;;;;;;;26.25;24.25;;;;;;;;5057415;28;10571;-81
2023/11/16 04:19:46;;;;;;;;;24.50;22.25;;;;;;;;5064968;28;10789;-81
2023/11/16 04:22:16;;;;;;;;;24.25;23.50;;;;;;;;5070548;28;10577;-81
2023/11/16 04:24:44;;;;;;;;;24.25;23.00;;;;;;;;5077596;28;11168;-80
2023/11/16 04:27:12;;;;;;;;;24.50;22.75;;;;;;;;5077669;28;10679;-80
2023/11/16 04:29:40;;;;;;;;;32.25;27.25;;;;;;;;5075629;28;10492;-82
2023/11/16 04:32:11;;;;;;;;;27.25;24.25;;;;;;;;5074855;28;10649;-82
2023/11/16 04:34:46;;;;;;;;;22.50;22.50;;;;;;;;5072118;28;10441;-82
2023/11/16 04:37:16;;;;;;;;;25.75;22.75;;;;;;;;5075506;28;10783;-80
2023/11/16 04:39:43;;;;;;;;;26.25;21.00;;;;;;;;5058646;28;10654;-82
2023/11/16 04:42:13;;;;;;;;;24.50;23.25;;;;;;;;5076160;28;10559;-81
2023/11/16 04:44:41;;;;;;;;;25.00;24.00;;;;;;;;5061917;28;10729;-82
2023/11/16 04:47:08;;;;;;;;;24.25;24.25;;;;;;;;5067234;28;10596;-81
2023/11/16 04:49:35;;;;;;;;;30.25;27.75;;;;;;;;5071194;28;10629;-83
2023/11/16 04:52:03;;;;;;;;;27.00;25.00;;;;;;;;5071788;28;10735;-81
2023/11/16 04:54:34;;;;;;;;;22.00;22.00;;;;;;;;5072719;28;10674;-81
2023/11/16 04:57:02;;;;;;;;;22.25;20.75;;;;;;;;5070124;28;10657;-82
2023/11/16 04:59:35;;;;;;;;;31.00;24.75;;;;;;;;5069136;28;10636;-83
2023/11/16 05:02:02;;;;;;;;;20.25;18.75;;;;;;;;5068246;28;10626;-83
2023/11/16 05:04:33;;;;;;;;;24.75;22.25;;;;;;;;5065368;28;10645;-81
2023/11/16 05:07:00;;;;;;;;;20.75;19.25;;;;;;;;5071687;28;10689;-81
2023/11/16 05:09:27;;;;;;;;;18.75;14.25;;;;;;;;5068643;28;10532;-80
2023/11/16 05:11:57;;;;;;;;;18.25;18.25;;;;;;;;5068521;28;10406;-81
2023/11/16 05:14:24;;;;;;;;;25.00;21.50;;;;;;;;5068637;28;10654;-82
2023/11/16 05:16:51;;;;;;;;;22.50;22.50;;;;;;;;5068727;28;10566;-81
2023/11/16 05:19:18;;;;;;;;;21.50;21.50;;;;;;;;5068526;28;10494;-81
2023/11/16 05:21:45;;;;;;;;;24.75;24.75;;;;;;;;5068334;28;10553;-80
2023/11/16 05:24:13;;;;;;;;;21.50;19.75;;;;;;;;5069104;28;10495;-83
2023/11/16 05:26:44;;;;;;;;;23.50;22.75;;;;;;;;5068627;28;11317;-81
2023/11/16 05:29:13;;;;;;;;;27.50;23.50;;;;;;;;5077250;28;10573;-82
2023/11/16 05:31:42;;;;;;;;;21.00;19.25;;;;;;;;5067385;28;10569;-80
2023/11/16 05:34:09;;;;;;;;;24.00;24.00;;;;;;;;5068578;28;10559;-81
2023/11/16 05:36:36;;;;;;;;;23.00;23.00;;;;;;;;5067327;28;10506;-83
2023/11/16 05:39:05;;;;;;;;;16.50;14.50;;;;;;;;5067728;28;10478;-81
2023/11/16 05:41:33;;;;;;;;;24.00;24.00;;;;;;;;5067458;28;10586;-80
2023/11/16 05:44:00;;;;;;;;;21.75;21.75;;;;;;;;5064817;28;10583;-84
2023/11/16 05:46:32;;;;;;;;;21.25;19.75;;;;;;;;5067554;28;10445;-83
2023/11/16 05:48:59;;;;;;;;;22.50;19.75;;;;;;;;5067571;28;11148;-80
2023/11/16 05:51:27;;;;;;;;;21.75;19.25;;;;;;;;5068485;28;10430;-79
2023/11/16 05:53:54;;;;;;;;;23.00;19.75;;;;;;;;5066958;28;10392;-80
2023/11/16 05:56:22;;;;;;;;;23.00;19.75;;;;;;;;5068661;28;10570;-83
2023/11/16 05:58:52;;;;;;;;;25.25;24.00;;;;;;;;5067848;28;10641;-78
2023/11/16 06:01:19;;;;;;;;;25.00;22.50;;;;;;;;5066954;28;10340;-80
2023/11/16 06:03:48;;;;;;;;;20.00;20.00;;;;;;;;5067248;28;10579;-78
2023/11/16 06:06:21;;;;;;;;;18.50;17.00;;;;;;;;5068214;28;10502;-78
2023/11/16 06:08:48;;;;;;;;;22.25;20.25;;;;;;;;5067894;28;10440;-83
2023/11/16 06:11:16;;;;;;;;;17.50;17.50;;;;;;;;5068279;28;10357;-79
2023/11/16 06:13:45;;;;;;;;;24.00;20.50;;;;;;;;5068754;28;10471;-78
2023/11/16 06:16:15;;;;;;;;;21.25;20.25;;;;;;;;5070427;28;10567;-77
2023/11/16 06:18:49;;;;;;;;;16.50;16.50;;;;;;;;5070210;28;10514;-80
2023/11/16 06:21:17;;;;;;;;;26.00;24.25;;;;;;;;5072238;28;10706;-77
2023/11/16 06:23:45;;;;;;;;;26.25;23.00;;;;;;;;5064304;28;10610;-80
2023/11/16 06:26:12;;;;;;;;;23.00;20.25;;;;;;;;5070987;28;10664;-80
2023/11/16 06:28:43;;;;;;;;;20.50;19.00;;;;;;;;5072086;28;10516;-79
2023/11/16 06:31:11;;;;;;;;;16.25;16.25;;;;;;;;5066129;28;10593;-80
2023/11/16 06:33:38;;;;;;;;;19.00;13.75;;;;;;;;5064221;28;10658;-81
2023/11/16 06:36:08;;;;;;;;;21.75;19.50;;;;;;;;5064023;28;10664;-79
2023/11/16 06:38:35;;;;;;;;;21.25;20.00;;;;;;;;5070095;28;10747;-79
2023/11/16 06:41:06;;;;;;;;;19.75;19.00;;;;;;;;5069356;28;10603;-79
2023/11/16 06:43:33;;;;;;;;;20.75;20.75;;;;;;;;5068998;28;10609;-79
2023/11/16 06:46:02;;;;;;;;;17.00;15.50;;;;;;;;5069293;28;10673;-79
2023/11/16 06:48:30;;;;;;;;;20.25;20.00;;;;;;;;5060480;28;10482;-79
2023/11/16 06:51:00;;;;;;;;;27.75;22.25;;;;;;;;5071273;28;10490;-80
2023/11/16 06:53:32;;;;;;;;;20.75;19.75;;;;;;;;5071042;28;10494;-81
2023/11/16 06:56:00;;;;;;;;;25.75;24.00;;;;;;;;5073202;28;10591;-80
2023/11/16 06:58:31;;;;;;;;;14.00;14.00;;;;;;;;5078907;28;10683;-77
2023/11/16 07:01:08;;;;;;;;;16.25;13.75;;;;;;;;5085808;28;10339;-80
2023/11/16 07:03:35;;;;;;;;;9.25;9.25;;;;;;;;5072089;28;10421;-82
2023/11/16 07:06:06;;;;;;;;;4.25;4.25;;;;;;;;5066540;28;10196;-81
2023/11/16 07:08:37;;;;;;;;;8.50;8.50;;;;;;;;5067886;28;10083;-79
2023/11/16 07:11:05;;;;;;;;;6.25;4.50;;;;;;;;5061554;28;10084;-81
2023/11/16 07:13:32;;;;;;;;;4.25;4.25;;;;;;;;5071218;28;10030;-80
2023/11/16 07:16:00;;;;;;;;;5.50;4.00;;;;;;;;5070587;28;9973;-78
2023/11/16 07:18:27;;;;;;;;;6.75;5.00;;;;;;;;5070392;28;10714;-79
2023/11/16 07:20:57;;;;;;;;;5.75;3.00;;;;;;;;5070944;28;9942;-79
2023/11/16 07:23:25;;;;;;;;;6.25;5.75;;;;;;;;5070890;28;10486;-80
2023/11/16 07:25:53;;;;;;;;;8.75;6.00;;;;;;;;5070733;28;10084;-77
2023/11/16 07:28:25;;;;;;;;;4.75;4.75;;;;;;;;5069550;28;10073;-78
2023/11/16 07:30:52;;;;;;;;;10.50;6.00;;;;;;;;5080294;28;9854;-78
2023/11/16 07:33:22;;;;;;;;;5.00;5.00;;;;;;;;5068743;28;10942;-81
2023/11/16 07:35:50;;;;;;;;;5.00;5.00;;;;;;;;5070368;28;10835;-75
2023/11/16 07:38:17;;;;;;;;;6.00;4.00;;;;;;;;5070897;28;10024;-79
2023/11/16 07:40:45;;;;;;;;;7.25;7.25;;;;;;;;5070111;28;9857;-80
2023/11/16 07:43:15;;;;;;;;;6.50;6.50;;;;;;;;5070342;28;9938;-77
2023/11/16 07:45:43;;;;;;;;;9.25;7.00;;;;;;;;5070174;28;10014;-79
2023/11/16 07:48:13;;;;;;;;;5.00;4.75;;;;;;;;5071043;28;9999;-79
2023/11/16 07:50:42;;;;;;;;;7.50;6.00;;;;;;;;5070512;28;10734;-78
2023/11/16 07:53:10;;;;;;;;;4.75;3.00;;;;;;;;5070245;28;10061;-80
2023/11/16 07:55:40;;;;;;;;;10.50;7.25;;;;;;;;5070647;28;10520;-80
2023/11/16 07:58:12;;;;;;;;;4.50;4.50;;;;;;;;5071062;28;10074;-78
2023/11/16 08:00:55;;;;;;;;;6.00;6.00;;;;;;;;5070190;28;9971;-80
2023/11/16 08:06:12;;;;;;;;;6.00;5.50;;;;;;;;5064244;28;10051;-79
2023/11/16 08:08:42;;;;;;;;;6.25;4.75;;;;;;;;5074838;28;10105;-79
2023/11/16 08:11:11;;;;;;;;;12.00;8.00;;;;;;;;5074797;28;10014;-78
2023/11/16 08:13:41;;;;;;;;;9.00;9.00;;;;;;;;5075574;28;10177;-79
2023/11/16 08:16:10;;;;;;;;;7.25;6.00;;;;;;;;5072892;28;10234;-79
2023/11/16 08:18:38;;;;;;;;;10.00;7.75;;;;;;;;5071174;28;10113;-79
2023/11/16 08:21:07;;;;;;;;;18.50;16.25;;;;;;;;5070791;28;10236;-79
2023/11/16 08:23:39;;;;;;;;;19.00;18.50;;;;;;;;5071966;28;10418;-80
2023/11/16 08:26:07;;;;;;;;;12.75;12.75;;;;;;;;5073710;28;10602;-79
2023/11/16 08:28:35;;;;;;;;;6.00;6.00;;;;;;;;5071881;28;10332;-80
2023/11/16 08:31:02;;;;;;;;;3.25;3.25;;;;;;;;5069420;28;10121;-80
2023/11/16 08:33:35;;;;;;;;;6.00;6.00;;;;;;;;5065382;28;9881;-79
2023/11/16 08:36:03;;;;;;;;;9.00;5.00;;;;;;;;5063582;28;10034;-79
2023/11/16 08:38:31;;;;;;;;;5.75;5.75;;;;;;;;5069569;28;10119;-80
2023/11/16 08:41:00;;;;;;;;;2.50;2.50;;;;;;;;5070086;28;9846;-78
2023/11/16 08:43:32;;;;;;;;;6.50;6.50;;;;;;;;5084354;28;10102;-76
2023/11/16 08:46:00;;;;;;;;;5.75;5.00;;;;;;;;5079028;28;10030;-79
2023/11/16 08:48:33;;;;;;;;;7.75;5.00;;;;;;;;5072638;28;9985;-80
2023/11/16 08:51:05;;;;;;;;;11.25;7.25;;;;;;;;5069569;28;10141;-79
2023/11/16 08:53:33;;;;;;;;;9.50;7.00;;;;;;;;5069002;28;10499;-79
2023/11/16 08:56:03;;;;;;;;;10.00;10.00;;;;;;;;5068898;28;10110;-78
2023/11/16 08:58:32;;;;;;;;;8.00;8.00;;;;;;;;5069055;28;9925;-78
2023/11/16 09:01:03;;;;;;;;;7.00;7.00;;;;;;;;5068371;28;9878;-80
2023/11/16 09:03:33;;;;;;;;;20.50;14.25;;;;;;;;5068401;28;9960;-78
2023/11/16 09:06:06;;;;;;;;;6.75;6.75;;;;;;;;5069143;28;10240;-79
2023/11/16 09:08:36;;;;;;;;;6.00;6.00;;;;;;;;5069019;28;10011;-79
2023/11/16 09:11:05;;;;;;;;;7.75;7.00;;;;;;;;5070125;28;10022;-80
2023/11/16 09:13:33;;;;;;;;;9.25;4.75;;;;;;;;5069530;28;9937;-80
2023/11/16 09:16:00;;;;;;;;;10.00;8.00;;;;;;;;5072631;28;9881;-80
2023/11/16 09:18:27;;;;;;;;;6.00;6.00;;;;;;;;5068753;28;10022;-79
2023/11/16 09:20:56;;;;;;;;;8.75;8.75;;;;;;;;5068858;28;9937;-80
2023/11/16 09:23:25;;;;;;;;;6.25;6.25;;;;;;;;5067946;28;10109;-80
2023/11/16 09:25:54;;;;;;;;;6.00;3.00;;;;;;;;5068206;28;10079;-80
2023/11/16 09:28:22;;;;;;;;;2.00;2.00;;;;;;;;5068134;28;10712;-79
2023/11/16 09:30:50;;;;;;;;;3.00;3.00;;;;;;;;5068117;28;9678;-80
2023/11/16 09:33:18;;;;;;;;;5.25;5.00;;;;;;;;5069153;28;9767;-79
2023/11/16 09:35:46;;;;;;;;;3.00;3.00;;;;;;;;5068894;28;9852;-80
2023/11/16 09:38:13;;;;;;;;;2.00;2.00;;;;;;;;5068994;28;9942;-78
2023/11/16 09:40:44;;;;;;;;;1.00;0.00;;;;;;;;5068968;28;9998;-78
2023/11/16 09:43:17;;;;;;;;;2.25;1.75;;;;;;;;5069291;28;9845;-80
2023/11/16 09:45:48;;;;;;;;;3.00;3.00;;;;;;;;5068900;28;9805;-79
2023/11/16 09:48:17;;;;;;;;;4.75;2.25;;;;;;;;5070387;28;9863;-78
2023/11/16 09:50:45;;;;;;;;;2.00;2.00;;;;;;;;5067154;28;9939;-79
2023/11/16 09:53:17;;;;;;;;;2.00;2.00;;;;;;;;5071221;28;9861;-78
2023/11/16 09:55:50;;;;;;;;;3.00;2.00;;;;;;;;5072122;28;9870;-78
2023/11/16 09:58:23;;;;;;;;;1.25;1.25;;;;;;;;5073504;28;9955;-78
2023/11/16 10:00:55;;;;;;;;;2.00;2.00;;;;;;;;5071719;28;9901;-79
2023/11/16 10:03:26;;;;;;;;;3.00;2.00;;;;;;;;5063912;28;9907;-79
2023/11/16 10:05:55;;;;;;;;;3.25;2.00;;;;;;;;5068933;28;9857;-79
2023/11/16 10:08:23;;;;;;;;;3.00;2.00;;;;;;;;5070336;28;9870;-79
2023/11/16 10:11:02;;;;;;;;;2.50;2.50;;;;;;;;5070306;28;10038;-80
2023/11/16 10:13:29;;;;;;;;;1.00;1.00;;;;;;;;5070419;28;9801;-80
2023/11/16 10:16:04;;;;;;;;;2.75;2.00;;;;;;;;5069297;28;10807;-79
2023/11/16 10:18:32;;;;;;;;;2.00;2.00;;;;;;;;5068087;28;9863;-80
2023/11/16 10:21:03;;;;;;;;;3.75;2.00;;;;;;;;5067349;28;9956;-79
2023/11/16 10:23:31;;;;;;;;;2.75;2.75;;;;;;;;5067346;28;10033;-78
2023/11/16 10:26:00;;;;;;;;;1.75;1.75;;;;;;;;5067292;28;10793;-78
2023/11/16 10:28:28;;;;;;;;;3.50;2.25;;;;;;;;5067192;28;9925;-81
2023/11/16 10:30:58;;;;;;;;;1.50;1.50;;;;;;;;5066850;28;9968;-79
2023/11/16 10:33:28;;;;;;;;;2.00;2.00;;;;;;;;5066578;28;9984;-84
2023/11/16 10:35:59;;;;;;;;;3.25;2.00;;;;;;;;5067008;28;10583;-80
2023/11/16 10:38:28;;;;;;;;;2.00;2.00;;;;;;;;5064401;28;10583;-78
2023/11/16 10:40:56;;;;;;;;;2.00;2.00;;;;;;;;5065752;28;9966;-79
2023/11/16 10:43:27;;;;;;;;;2.75;2.00;;;;;;;;5067638;28;10603;-79
2023/11/16 10:45:56;;;;;;;;;2.00;2.00;;;;;;;;5067239;28;9921;-79
2023/11/16 10:48:24;;;;;;;;;3.00;3.00;;;;;;;;5067473;28;10079;-78
2023/11/16 10:50:52;;;;;;;;;2.00;2.00;;;;;;;;5067528;28;9945;-77
2023/11/16 10:53:22;;;;;;;;;2.00;2.00;;;;;;;;5067386;28;10019;-79
2023/11/16 10:55:52;;;;;;;;;2.50;2.50;;;;;;;;5068447;28;9780;-76
2023/11/16 10:58:21;;;;;;;;;4.00;3.00;;;;;;;;5069070;28;9978;-78
2023/11/16 11:00:52;;;;;;;;;3.00;3.00;;;;;;;;5068309;28;9757;-77
2023/11/16 11:03:20;;;;;;;;;3.50;3.50;;;;;;;;5068010;28;10018;-78
2023/11/16 11:05:52;;;;;;;;;2.25;2.25;;;;;;;;5067001;28;9857;-78
2023/11/16 11:08:20;;;;;;;;;3.00;3.00;;;;;;;;5066842;28;9949;-76
2023/11/16 11:10:48;;;;;;;;;3.00;3.00;;;;;;;;5067526;28;10685;-78
2023/11/16 11:13:21;;;;;;;;;5.00;3.25;;;;;;;;5069747;28;9986;-78
2023/11/16 11:15:50;;;;;;;;;2.75;2.75;;;;;;;;5072042;28;10049;-75
2023/11/16 11:18:25;;;;;;;;;2.75;2.75;;;;;;;;5084051;28;9952;-81
2023/11/16 11:20:53;;;;;;;;;2.25;2.25;;;;;;;;5061051;28;9918;-80
2023/11/16 11:23:20;;;;;;;;;3.00;3.00;;;;;;;;5068175;28;10061;-80
2023/11/16 11:25:49;;;;;;;;;6.00;4.25;;;;;;;;5068099;28;10008;-78
2023/11/16 11:28:17;;;;;;;;;1.00;1.00;;;;;;;;5062418;28;9987;-80
2023/11/16 11:30:54;;;;;;;;;9.50;6.50;;;;;;;;5060799;28;9778;-78
2023/11/16 11:33:28;;;;;;;;;3.25;3.25;;;;;;;;5057922;28;10020;-76
2023/11/16 11:35:56;;;;;;;;;4.00;4.00;;;;;;;;5073278;28;9920;-80
2023/11/16 11:38:27;;;;;;;;;6.00;4.50;;;;;;;;5071484;28;9867;-78
2023/11/16 11:41:06;;;;;;;;;3.50;2.50;;;;;;;;5075676;28;9851;-87
2023/11/16 11:43:34;;;;;;;;;4.00;4.00;;;;;;;;5076074;28;9787;-77
2023/11/16 11:46:03;;;;;;;;;6.75;2.25;;;;;;;;5076333;28;10034;-77
2023/11/16 11:48:30;;;;;;;;;2.00;2.00;;;;;;;;5067704;28;10037;-75
2023/11/16 11:51:00;;;;;;;;;2.50;2.50;;;;;;;;5073142;28;9959;-77
2023/11/16 11:53:29;;;;;;;;;4.00;3.00;;;;;;;;5070228;28;9944;-75
2023/11/16 11:55:57;;;;;;;;;1.00;1.00;;;;;;;;5071042;28;9852;-78
2023/11/16 11:58:25;;;;;;;;;1.00;1.00;;;;;;;;5072072;28;9712;-75
2023/11/16 12:00:53;;;;;;;;;1.50;1.50;;;;;;;;5071207;28;9718;-76
2023/11/16 12:03:22;;;;;;;;;2.00;2.00;;;;;;;;5071157;28;9775;-76
2023/11/16 12:05:58;;;;;;;;;2.00;2.00;;;;;;;;5069319;28;9823;-76
2023/11/16 12:08:26;;;;;;;;;2.25;2.25;;;;;;;;5069256;28;9703;-76
2023/11/16 12:10:55;;;;;;;;;3.00;3.00;;;;;;;;5070019;28;9790;-78
2023/11/16 12:13:22;;;;;;;;;1.50;1.50;;;;;;;;5070088;28;9883;-77
2023/11/16 12:15:49;;;;;;;;;1.00;1.00;;;;;;;;5070408;28;9771;-77
2023/11/16 12:18:16;;;;;;;;;1.00;1.00;;;;;;;;5069461;28;9892;-77
2023/11/16 12:20:45;;;;;;;;;1.00;1.00;;;;;;;;5070091;28;10589;-75
2023/11/16 12:23:13;;;;;;;;;3.00;3.00;;;;;;;;5069445;28;10006;-76
2023/11/16 12:25:42;;;;;;;;;2.75;1.00;;;;;;;;5070607;28;9961;-77
2023/11/16 12:28:09;;;;;;;;;5.00;3.00;;;;;;;;5070153;28;9761;-77
2023/11/16 12:30:38;;;;;;;;;1.25;1.25;;;;;;;;5070083;28;9997;-77
2023/11/16 12:33:08;;;;;;;;;1.50;1.50;;;;;;;;5069311;28;9706;-78
2023/11/16 12:35:38;;;;;;;;;1.50;1.50;;;;;;;;5070264;28;9753;-79
2023/11/16 12:38:07;;;;;;;;;0.00;0.00;;;;;;;;5068936;28;9690;-77
2023/11/16 12:40:36;;;;;;;;;2.25;2.25;;;;;;;;5070495;28;9607;-77
2023/11/16 12:43:04;;;;;;;;;1.00;1.00;;;;;;;;5081199;28;9786;-77
2023/11/16 12:45:32;;;;;;;;;0.00;0.00;;;;;;;;5069422;28;10389;-75
2023/11/16 12:48:01;;;;;;;;;1.00;1.00;;;;;;;;5075162;28;9657;-78
2023/11/16 12:50:29;;;;;;;;;1.00;1.00;;;;;;;;5075042;28;9621;-77
2023/11/16 12:52:58;;;;;;;;;3.00;1.00;;;;;;;;5056580;28;9796;-76
2023/11/16 12:55:26;;;;;;;;;1.25;1.25;;;;;;;;5069016;28;9832;-77
2023/11/16 12:57:53;;;;;;;;;4.00;2.00;;;;;;;;5069155;28;9544;-78
2023/11/16 13:00:21;;;;;;;;;0.50;0.50;;;;;;;;5068714;28;10377;-78
2023/11/16 13:02:48;;;;;;;;;0.75;0.75;;;;;;;;5067838;28;9632;-78
2023/11/16 13:05:16;;;;;;;;;1.50;0.50;;;;;;;;5069003;28;9541;-77
2023/11/16 13:07:44;;;;;;;;;0.00;0.00;;;;;;;;5069600;28;9649;-77
2023/11/16 13:10:11;;;;;;;;;0.00;0.00;;;;;;;;5069795;28;9480;-78
2023/11/16 13:12:40;;;;;;;;;0.00;0.00;;;;;;;;5069752;28;9405;-78
2023/11/16 13:15:08;;;;;;;;;0.00;0.00;;;;;;;;5069124;28;9447;-78
2023/11/16 13:17:35;;;;;;;;;1.25;0.00;;;;;;;;5069772;28;9533;-78
2023/11/16 13:20:04;;;;;;;;;1.00;1.00;;;;;;;;5070860;28;10200;-78
2023/11/16 13:22:32;;;;;;;;;1.00;1.00;;;;;;;;5071411;28;9497;-79
2023/11/16 13:25:00;;;;;;;;;1.00;1.00;;;;;;;;5072931;28;9611;-78
2023/11/16 13:27:27;;;;;;;;;0.00;0.00;;;;;;;;5073689;28;9564;-78
2023/11/16 13:29:56;;;;;;;;;0.75;0.75;;;;;;;;5073573;28;9480;-78
2023/11/16 13:32:23;;;;;;;;;2.25;2.25;;;;;;;;5074297;28;9631;-78
2023/11/16 13:34:50;;;;;;;;;9.25;5.75;;;;;;;;5070440;28;9608;-76
2023/11/16 13:37:18;;;;;;;;;1.00;1.00;;;;;;;;5072279;28;9976;-78
2023/11/16 13:39:45;;;;;;;;;0.25;0.25;;;;;;;;5066397;28;9573;-77
2023/11/16 13:42:12;;;;;;;;;0.00;0.00;;;;;;;;5071448;28;9479;-77
2023/11/16 13:44:39;;;;;;;;;4.00;2.00;;;;;;;;5074610;28;9537;-76
2023/11/16 13:47:10;;;;;;;;;1.00;1.00;;;;;;;;5077330;28;9696;-77
2023/11/16 13:49:38;;;;;;;;;0.75;0.75;;;;;;;;5067859;28;9533;-77
2023/11/16 13:52:05;;;;;;;;;0.25;0.25;;;;;;;;5067786;28;9546;-77
2023/11/16 13:54:33;;;;;;;;;0.00;0.00;;;;;;;;5056156;28;9460;-78
2023/11/16 13:57:00;;;;;;;;;1.50;1.00;;;;;;;;5068575;28;9465;-79
2023/11/16 13:59:27;;;;;;;;;1.00;1.00;;;;;;;;5054567;28;9662;-78
2023/11/16 14:01:54;;;;;;;;;0.00;0.00;;;;;;;;5067344;28;9495;-79
2023/11/16 14:04:23;;;;;;;;;1.00;1.00;;;;;;;;5068478;28;9688;-80
2023/11/16 14:06:50;;;;;;;;;1.00;1.00;;;;;;;;5080619;28;9622;-79
2023/11/16 14:09:20;;;;;;;;;1.00;1.00;;;;;;;;5067672;28;9705;-78
2023/11/16 14:11:47;;;;;;;;;2.00;2.00;;;;;;;;5067433;28;9727;-79
2023/11/16 14:14:15;;;;;;;;;1.00;1.00;;;;;;;;5068376;28;9752;-80
2023/11/16 14:16:42;;;;;;;;;1.50;0.00;;;;;;;;5071030;28;9843;-78
2023/11/16 14:19:09;;;;;;;;;2.50;2.00;;;;;;;;5070333;28;9646;-79
2023/11/16 14:21:38;;;;;;;;;3.00;3.00;;;;;;;;5067680;28;9680;-79
2023/11/16 14:24:06;;;;;;;;;2.00;2.00;;;;;;;;5067877;28;9860;-81
2023/11/16 14:26:34;;;;;;;;;6.00;6.00;;;;;;;;5066753;28;9861;-80
2023/11/16 14:29:01;;;;;;;;;2.75;2.75;;;;;;;;5067159;28;10014;-80
2023/11/16 14:31:28;;;;;;;;;11.50;9.75;;;;;;;;5070784;28;9738;-77
2023/11/16 14:33:56;;;;;;;;;2.00;2.00;;;;;;;;5075876;28;10049;-79
2023/11/16 14:36:23;;;;;;;;;2.00;2.00;;;;;;;;5067401;28;9686;-78
2023/11/16 14:38:52;;;;;;;;;3.75;3.75;;;;;;;;5067562;28;9883;-78
2023/11/16 14:41:20;;;;;;;;;2.00;2.00;;;;;;;;5066930;28;9940;-79
2023/11/16 14:43:47;;;;;;;;;0.75;0.75;;;;;;;;5067881;28;9859;-79
2023/11/16 14:46:14;;;;;;;;;0.00;0.00;;;;;;;;5067187;28;9783;-78
2023/11/16 14:48:42;;;;;;;;;1.00;1.00;;;;;;;;5067321;28;9678;-78
2023/11/16 14:51:09;;;;;;;;;1.00;1.00;;;;;;;;5067688;28;9777;-79